Time;durP1;ratioP1;P1;durP2;ratioP2;P2;SDS_P1;SDS_P2;PMS_P1;PMS_P2;Temp;Humidity;BMP_temperature;BMP_pressure;BME280_temperature;BME280_humidity;BME280_pressure;Samples;Min_cycle;Max_cycle;Signal;HPM_P1;HPM_P2
2021/05/12 00:02:22;;;;;;;1.98;1.40;;;;;;;28.30;31.50;96079.22;5035664;28;20044;-30
2021/05/12 00:04:47;;;;;;;2.05;1.50;;;;;;;28.31;31.58;96085.34;5034538;28;20021;-28
2021/05/12 00:07:13;;;;;;;1.90;1.23;;;;;;;28.30;31.75;96083.66;5033508;28;20477;-29
2021/05/12 00:09:38;;;;;;;2.17;1.30;;;;;;;28.30;31.69;96081.03;5023398;28;20037;-30
2021/05/12 00:12:04;;;;;;;2.25;1.50;;;;;;;28.29;31.46;96082.81;5027647;28;20025;-29
2021/05/12 00:14:31;;;;;;;2.83;1.48;;;;;;;28.27;31.42;96084.72;5038259;28;20533;-27
2021/05/12 00:17:02;;;;;;;1.88;1.35;;;;;;;28.30;31.64;96088.94;5035857;28;20583;-30
2021/05/12 00:19:28;;;;;;;2.58;1.40;;;;;;;28.29;31.62;96093.34;5031235;28;20606;-28
2021/05/12 00:22:03;;;;;;;1.52;1.20;;;;;;;28.29;31.58;96098.63;5037540;28;20124;-30
2021/05/12 00:24:28;;;;;;;1.83;1.45;;;;;;;28.30;31.58;96099.47;5034674;28;20986;-32
2021/05/12 00:26:54;;;;;;;1.60;1.30;;;;;;;28.30;31.55;96107.38;5036545;28;20063;-29
2021/05/12 00:29:19;;;;;;;1.55;1.27;;;;;;;28.29;31.48;96109.16;5029161;28;20025;-29
2021/05/12 00:31:45;;;;;;;2.83;1.50;;;;;;;28.29;31.53;96105.69;5032512;28;20055;-30
2021/05/12 00:34:10;;;;;;;2.88;1.80;;;;;;;28.29;31.64;96103.03;5030227;28;20032;-27
2021/05/12 00:36:36;;;;;;;3.05;1.58;;;;;;;28.28;31.71;96101.38;5027943;28;20494;-29
2021/05/12 00:39:06;;;;;;;1.27;1.00;;;;;;;28.28;31.53;96106.66;5028298;28;20640;-30
2021/05/12 00:41:31;;;;;;;3.03;1.40;;;;;;;28.28;31.42;96111.91;5043119;28;20017;-30
2021/05/12 00:43:56;;;;;;;2.33;1.40;;;;;;;28.28;31.39;96111.91;5031897;28;20098;-33
2021/05/12 00:46:22;;;;;;;1.63;1.02;;;;;;;28.28;31.50;96106.66;5033318;28;20090;-29
2021/05/12 00:48:47;;;;;;;1.45;1.13;;;;;;;28.28;31.53;96112.75;5027552;28;20036;-30
2021/05/12 00:51:13;;;;;;;1.85;1.45;;;;;;;28.27;31.70;96110.25;5036834;28;20017;-26
2021/05/12 00:53:38;;;;;;;1.75;1.15;;;;;;;28.26;31.69;96111.19;5031622;28;20033;-29
2021/05/12 00:56:04;;;;;;;1.10;1.00;;;;;;;28.27;31.59;96110.25;5038950;28;20029;-30
2021/05/12 00:58:30;;;;;;;1.67;1.25;;;;;;;28.27;31.51;96121.59;5031187;28;20028;-30
2021/05/12 01:00:55;;;;;;;2.50;1.20;;;;;;;28.28;31.59;96117.19;5041709;28;20800;-30
2021/05/12 01:03:21;;;;;;;1.55;1.02;;;;;;;28.27;31.51;96120.78;5031145;28;20091;-29
2021/05/12 01:05:49;;;;;;;1.88;1.40;;;;;;;28.27;31.43;96118.97;5033760;28;20263;-31
2021/05/12 01:08:14;;;;;;;2.55;1.20;;;;;;;28.27;31.41;96123.41;5026888;28;20132;-27
2021/05/12 01:10:40;;;;;;;1.55;1.20;;;;;;;28.27;31.53;96121.59;5038993;28;20622;-27
2021/05/12 01:13:06;;;;;;;1.10;0.90;;;;;;;28.27;31.51;96118.16;5037943;28;20041;-29
2021/05/12 01:15:31;;;;;;;2.47;1.20;;;;;;;28.26;31.65;96124.38;5039349;28;20039;-28
2021/05/12 01:18:13;;;;;;;1.83;1.30;;;;;;;28.27;31.45;96131.31;5044504;28;20033;-30
2021/05/12 01:20:59;;;;;;;3.05;0.93;;;;;;;28.21;31.45;96126.44;5030616;28;20043;-29
2021/05/12 01:23:25;;;;;;;2.00;1.10;;;;;;;28.24;31.42;96124.44;5035465;28;20122;-30
2021/05/12 01:25:52;;;;;;;1.73;1.20;;;;;;;28.24;31.43;96127.09;5024389;28;20455;-29
2021/05/12 01:28:17;;;;;;;2.03;1.15;;;;;;;28.24;31.63;96127.09;5032461;28;20025;-28
2021/05/12 01:31:05;;;;;;;2.28;1.20;;;;;;;28.23;31.42;96135.94;5032045;28;20517;-30
2021/05/12 01:33:30;;;;;;;1.60;1.10;;;;;;;28.24;31.58;96142.91;5028495;28;20017;-29
2021/05/12 01:35:56;;;;;;;1.75;1.00;;;;;;;28.24;31.62;96139.41;5029704;28;20055;-28
2021/05/12 01:38:22;;;;;;;2.50;1.10;;;;;;;28.24;31.52;96134.13;5031025;28;20455;-28
2021/05/12 01:40:47;;;;;;;1.45;1.00;;;;;;;28.23;31.85;96140.38;5024387;28;20031;-28
2021/05/12 01:43:13;;;;;;;1.30;1.00;;;;;;;28.22;31.40;96138.69;5029871;28;20051;-27
2021/05/12 01:45:39;;;;;;;2.10;0.90;;;;;;;28.22;31.38;96138.69;5028843;28;20596;-31
2021/05/12 01:48:06;;;;;;;1.05;0.95;;;;;;;28.22;31.50;96136.06;5032640;28;20028;-28
2021/05/12 01:50:31;;;;;;;1.85;1.20;;;;;;;28.23;31.36;96143.00;5029375;28;20120;-28
2021/05/12 01:52:57;;;;;;;1.50;0.88;;;;;;;28.22;31.32;96143.97;5036978;28;20144;-31
2021/05/12 01:55:22;;;;;;;1.35;0.93;;;;;;;28.22;31.48;96139.50;5030362;28;20518;-27
2021/05/12 01:57:47;;;;;;;1.52;0.88;;;;;;;28.21;31.32;96144.88;5029271;28;20029;-28
2021/05/12 02:00:22;;;;;;;1.15;0.77;;;;;;;28.21;31.41;96143.09;5030471;28;20032;-27
2021/05/12 02:02:47;;;;;;;2.08;0.98;;;;;;;28.21;31.56;96131.72;5035546;28;20035;-27
2021/05/12 02:05:13;;;;;;;2.08;0.95;;;;;;;28.21;31.52;96132.56;5029415;28;20036;-29
2021/05/12 02:07:38;;;;;;;1.63;0.70;;;;;;;28.21;31.38;96134.34;5025325;28;20036;-26
2021/05/12 02:10:04;;;;;;;1.83;1.08;;;;;;;28.21;31.42;96135.19;5024956;28;20075;-31
2021/05/12 02:12:30;;;;;;;3.38;0.80;;;;;;;28.21;31.42;96121.19;5037932;28;20785;-29
2021/05/12 02:14:55;;;;;;;1.30;0.90;;;;;;;28.18;31.47;96128.38;5027486;28;20036;-29
2021/05/12 02:17:20;;;;;;;2.17;1.05;;;;;;;28.19;31.58;96134.50;5021753;28;20052;-26
2021/05/12 02:19:47;;;;;;;1.60;0.93;;;;;;;28.19;31.63;96129.22;5012188;28;20237;-27
2021/05/12 02:22:13;;;;;;;1.30;1.00;;;;;;;28.20;31.49;96133.53;5037112;28;20080;-30
2021/05/12 02:24:38;;;;;;;1.75;0.90;;;;;;;28.18;31.42;96131.00;5026929;28;20420;-29
2021/05/12 02:27:04;;;;;;;2.20;1.20;;;;;;;28.18;31.45;96128.38;5033046;28;20667;-28
2021/05/12 02:29:29;;;;;;;1.58;0.82;;;;;;;28.20;31.52;96127.41;5027403;28;20028;-29
2021/05/12 02:31:54;;;;;;;4.03;0.95;;;;;;;28.18;31.43;96125.75;5031758;28;20145;-30
2021/05/12 02:34:20;;;;;;;2.10;0.90;;;;;;;28.17;31.44;96121.44;5033073;28;20029;-28
2021/05/12 02:36:45;;;;;;;2.00;0.80;;;;;;;28.18;31.30;96123.09;5028544;28;20024;-30
2021/05/12 02:39:10;;;;;;;0.77;0.70;;;;;;;28.17;31.58;96126.69;5031867;28;20324;-28
2021/05/12 02:41:36;;;;;;;0.73;0.70;;;;;;;28.17;31.42;96128.47;5028492;28;20049;-29
2021/05/12 02:44:01;;;;;;;1.77;0.68;;;;;;;28.17;31.34;96124.06;5027299;28;20025;-28
2021/05/12 02:46:27;;;;;;;1.08;0.73;;;;;;;28.17;31.40;96121.44;5030877;28;20581;-28
2021/05/12 02:48:52;;;;;;;1.60;0.60;;;;;;;28.16;31.59;96119.75;5032073;28;20028;-33
2021/05/12 02:51:17;;;;;;;1.48;0.90;;;;;;;28.16;31.44;96125.03;5030555;28;20029;-29
2021/05/12 02:53:43;;;;;;;1.17;0.60;;;;;;;28.17;31.41;96128.47;5031611;28;20056;-30
2021/05/12 02:56:08;;;;;;;0.88;0.80;;;;;;;28.17;31.56;96125.84;5031573;28;20039;-28
2021/05/12 02:58:34;;;;;;;1.17;0.90;;;;;;;28.15;31.30;96128.59;5027095;28;20021;-27
2021/05/12 03:01:00;;;;;;;3.03;0.75;;;;;;;28.15;31.46;96131.22;5030092;28;20040;-28
2021/05/12 03:03:25;;;;;;;2.22;0.85;;;;;;;28.14;31.25;96126.91;5037511;28;20013;-29
2021/05/12 03:05:50;;;;;;;1.25;0.70;;;;;;;28.15;31.29;96123.31;5028493;28;20024;-31
2021/05/12 03:08:16;;;;;;;1.00;0.80;;;;;;;28.15;31.17;96133.84;5026482;28;20033;-29
2021/05/12 03:10:41;;;;;;;0.60;0.60;;;;;;;28.14;31.28;96129.53;5030300;28;20041;-31
2021/05/12 03:13:07;;;;;;;1.05;0.68;;;;;;;28.14;31.32;96134.81;5032266;28;20040;-33
2021/05/12 03:15:33;;;;;;;0.85;0.57;;;;;;;28.14;31.35;96132.19;5032360;28;20031;-32
2021/05/12 03:17:58;;;;;;;1.27;0.70;;;;;;;28.13;31.30;96133.16;5031161;28;20033;-29
2021/05/12 03:20:24;;;;;;;1.10;0.60;;;;;;;28.13;31.34;96133.16;5033202;28;20563;-32
2021/05/12 03:22:50;;;;;;;0.98;0.60;;;;;;;28.13;31.35;96129.66;5026742;28;20037;-27
2021/05/12 03:25:16;;;;;;;1.02;0.70;;;;;;;28.13;31.45;96132.28;5014803;28;20040;-29
2021/05/12 03:27:41;;;;;;;1.25;0.65;;;;;;;28.12;31.44;96127.97;5029598;28;20044;-28
2021/05/12 03:30:16;;;;;;;1.75;0.70;;;;;;;28.11;31.27;96137.66;5022358;28;20119;-31
2021/05/12 03:32:42;;;;;;;0.75;0.57;;;;;;;28.11;31.41;96137.66;5036136;28;20045;-31
2021/05/12 03:35:08;;;;;;;0.65;0.57;;;;;;;28.11;31.52;96132.41;5033692;28;20025;-28
2021/05/12 03:37:33;;;;;;;0.75;0.70;;;;;;;28.11;31.27;96131.56;5018764;28;20024;-28
2021/05/12 03:39:58;;;;;;;1.08;0.60;;;;;;;28.10;31.44;96140.44;5018028;28;20024;-27
2021/05/12 03:42:24;;;;;;;0.82;0.52;;;;;;;28.11;31.52;96142.13;5020348;28;20722;-27
2021/05/12 03:44:49;;;;;;;1.45;0.77;;;;;;;28.10;31.37;96136.00;5033593;28;20033;-28
2021/05/12 03:47:15;;;;;;;0.82;0.60;;;;;;;28.09;31.40;96129.06;5027998;28;20024;-27
2021/05/12 03:49:40;;;;;;;0.88;0.57;;;;;;;28.10;31.38;96129.91;5030992;28;20037;-26
2021/05/12 03:52:05;;;;;;;1.73;0.80;;;;;;;28.10;31.25;96135.16;5033690;28;20025;-31
2021/05/12 03:54:31;;;;;;;1.20;0.63;;;;;;;28.09;31.36;96133.47;5036313;28;20127;-29
2021/05/12 03:56:56;;;;;;;1.50;0.80;;;;;;;28.08;31.38;96137.91;5031243;28;20395;-29
2021/05/12 03:59:22;;;;;;;0.63;0.50;;;;;;;28.09;31.27;96139.59;5028448;28;20534;-29
2021/05/12 04:01:47;;;;;;;1.48;0.75;;;;;;;28.08;31.42;96132.66;5036358;28;20072;-29
2021/05/12 04:04:15;;;;;;;1.23;0.63;;;;;;;28.08;31.41;96137.91;5033100;28;20033;-28
2021/05/12 04:06:43;;;;;;;1.15;0.90;;;;;;;28.08;31.33;96137.91;5034605;28;20673;-31
2021/05/12 04:09:08;;;;;;;0.73;0.50;;;;;;;28.08;31.42;96130.00;5032742;28;20033;-29
2021/05/12 04:11:33;;;;;;;1.42;0.50;;;;;;;28.08;31.25;96134.44;5033650;28;20025;-31
2021/05/12 04:13:59;;;;;;;0.60;0.55;;;;;;;28.07;31.41;96130.94;5037779;28;20028;-29
2021/05/12 04:16:24;;;;;;;0.60;0.50;;;;;;;28.06;31.42;96129.25;5025983;28;20033;-29
2021/05/12 04:18:50;;;;;;;0.82;0.57;;;;;;;28.06;31.22;96137.16;5029717;28;20029;-29
2021/05/12 04:21:15;;;;;;;1.35;0.70;;;;;;;28.06;31.41;96138.97;5033659;28;20118;-33
2021/05/12 04:23:43;;;;;;;0.93;0.60;;;;;;;28.05;31.28;96143.41;5037321;28;20052;-28
2021/05/12 04:26:08;;;;;;;1.55;0.50;;;;;;;28.05;31.32;96138.13;5026168;28;20028;-28
2021/05/12 04:28:33;;;;;;;4.60;0.55;;;;;;;28.06;31.33;96139.81;5030918;28;20059;-28
2021/05/12 04:30:59;;;;;;;2.05;0.70;;;;;;;28.06;31.17;96149.50;5027894;28;20086;-28
2021/05/12 04:33:25;;;;;;;1.27;0.60;;;;;;;28.05;31.38;96148.66;5029402;28;20789;-29
2021/05/12 04:35:50;;;;;;;1.63;0.63;;;;;;;28.04;31.38;96142.53;5027253;28;20029;-30
2021/05/12 04:38:15;;;;;;;3.28;0.70;;;;;;;28.04;31.35;96144.34;5031278;28;20029;-28
2021/05/12 04:40:41;;;;;;;0.93;0.50;;;;;;;28.05;31.40;96148.66;5024387;28;20036;-30
2021/05/12 04:43:06;;;;;;;0.93;0.60;;;;;;;28.04;31.24;96141.72;5035362;28;20095;-32
2021/05/12 04:45:32;;;;;;;1.42;0.70;;;;;;;28.04;31.23;96141.72;5029351;28;20028;-28
2021/05/12 04:47:57;;;;;;;1.40;0.65;;;;;;;28.04;31.28;96141.72;5033107;28;20551;-29
2021/05/12 04:50:30;;;;;;;1.50;0.77;;;;;;;28.03;31.32;96135.59;5036767;28;20173;-30
2021/05/12 04:52:56;;;;;;;0.73;0.50;;;;;;;28.03;31.21;96140.00;5034737;28;20059;-29
2021/05/12 04:55:21;;;;;;;0.85;0.45;;;;;;;28.03;31.14;96148.75;5036312;28;20174;-28
2021/05/12 04:57:47;;;;;;;1.45;0.60;;;;;;;28.03;31.17;96148.75;5031227;28;20033;-29
2021/05/12 05:00:14;;;;;;;3.33;0.60;;;;;;;28.03;31.31;96155.81;5033677;28;20682;-28
2021/05/12 05:02:41;;;;;;;2.20;0.73;;;;;;;28.02;31.28;96154.13;5036669;28;20031;-33
2021/05/12 05:05:08;;;;;;;0.80;0.50;;;;;;;28.02;31.22;96151.50;5032174;28;20760;-29
2021/05/12 05:07:34;;;;;;;1.77;0.90;;;;;;;28.01;31.17;96150.69;5031759;28;20021;-31
2021/05/12 05:10:02;;;;;;;1.65;0.70;;;;;;;28.01;31.24;96152.47;5030515;28;20549;-28
2021/05/12 05:12:27;;;;;;;0.88;0.55;;;;;;;28.01;31.19;96157.72;5039250;28;20025;-29
2021/05/12 05:14:52;;;;;;;1.83;0.60;;;;;;;28.01;31.26;96165.63;5034212;28;20044;-29
2021/05/12 05:17:18;;;;;;;1.23;0.80;;;;;;;28.00;31.23;96164.78;5027947;28;20028;-28
2021/05/12 05:19:43;;;;;;;1.85;0.80;;;;;;;28.00;31.22;96171.88;5030657;28;20032;-31
2021/05/12 05:22:11;;;;;;;1.08;0.55;;;;;;;28.00;31.17;96171.88;5036128;28;20029;-34
2021/05/12 05:24:39;;;;;;;1.70;0.60;;;;;;;28.00;31.22;96171.88;5033549;28;20102;-29
2021/05/12 05:27:05;;;;;;;2.55;0.88;;;;;;;27.99;31.17;96172.81;5019874;28;20645;-33
2021/05/12 05:29:30;;;;;;;1.48;0.60;;;;;;;28.00;31.17;96172.69;5006804;28;20055;-28
2021/05/12 05:31:55;;;;;;;2.05;0.90;;;;;;;28.00;31.14;96177.13;5027197;28;20585;-30
2021/05/12 05:34:21;;;;;;;1.60;0.68;;;;;;;27.99;31.16;96171.00;5011383;28;20032;-27
2021/05/12 05:36:46;;;;;;;1.25;0.52;;;;;;;27.99;31.12;96176.28;5028875;28;20028;-33
2021/05/12 05:39:12;;;;;;;1.08;0.60;;;;;;;27.98;31.00;96176.38;5027138;28;20071;-28
2021/05/12 05:41:37;;;;;;;2.65;0.70;;;;;;;27.99;31.24;96180.72;5033749;28;20547;-28
2021/05/12 05:44:03;;;;;;;3.28;0.70;;;;;;;28.00;31.23;96179.75;5028293;28;20041;-29
2021/05/12 05:46:28;;;;;;;2.05;0.80;;;;;;;27.97;31.21;96180.81;5027770;28;20093;-26
2021/05/12 05:48:54;;;;;;;5.97;0.73;;;;;;;27.98;31.18;96179.00;5036412;28;20487;-29
2021/05/12 05:51:21;;;;;;;0.80;0.55;;;;;;;27.98;31.05;96189.56;5030111;28;20021;-29
2021/05/12 05:53:46;;;;;;;2.58;0.50;;;;;;;27.98;31.02;96189.56;5031426;28;20025;-30
2021/05/12 05:56:12;;;;;;;1.25;0.63;;;;;;;27.96;31.08;96184.38;5034151;28;20026;-30
2021/05/12 05:58:37;;;;;;;3.08;0.80;;;;;;;27.97;31.11;96183.47;5034800;28;20111;-32
2021/05/12 06:01:06;;;;;;;2.15;0.60;;;;;;;27.95;31.07;96192.44;5029273;28;20045;-28
2021/05/12 06:03:31;;;;;;;2.40;0.60;;;;;;;27.97;30.96;96198.41;5031789;28;20354;-29
2021/05/12 06:06:00;;;;;;;1.95;0.80;;;;;;;27.97;31.01;96187.88;5032169;28;20093;-31
2021/05/12 06:08:25;;;;;;;2.53;0.70;;;;;;;27.96;31.05;96202.81;5039358;28;20067;-30
2021/05/12 06:10:51;;;;;;;1.45;0.40;;;;;;;27.97;31.07;96198.41;5031114;28;20483;-29
2021/05/12 06:13:16;;;;;;;5.75;0.80;;;;;;;27.96;30.98;96191.47;5036562;28;20127;-31
2021/05/12 06:15:42;;;;;;;4.13;0.60;;;;;;;27.96;31.01;96196.72;5025953;28;20605;-31
2021/05/12 06:18:07;;;;;;;2.15;0.77;;;;;;;27.96;31.04;96194.09;5029228;28;20118;-29
2021/05/12 06:20:33;;;;;;;1.08;0.68;;;;;;;27.96;31.06;96204.63;5025903;28;20107;-29
2021/05/12 06:23:02;;;;;;;4.78;0.90;;;;;;;27.96;31.03;96204.63;5024375;28;20029;-28
2021/05/12 06:25:28;;;;;;;6.85;0.95;;;;;;;27.94;31.00;96198.63;5029567;28;20056;-30
2021/05/12 06:27:53;;;;;;;11.50;1.20;;;;;;;27.95;31.03;96200.31;5024996;28;20041;-28
2021/05/12 06:30:22;;;;;;;3.80;0.93;;;;;;;27.95;30.63;96202.97;5025067;28;20029;-28
2021/05/12 06:32:50;;;;;;;6.10;1.20;;;;;;;27.94;30.93;96204.75;5027676;28;20021;-27
2021/05/12 06:35:18;;;;;;;2.60;0.70;;;;;;;27.94;30.92;96203.88;5026215;28;20029;-29
2021/05/12 06:37:45;;;;;;;2.88;1.00;;;;;;;27.94;30.86;96203.88;5029205;28;20052;-27
2021/05/12 06:40:11;;;;;;;4.90;0.85;;;;;;;27.94;30.75;96207.38;5026756;28;20029;-31
2021/05/12 06:42:36;;;;;;;1.83;0.73;;;;;;;27.92;30.79;96207.47;5025160;28;20086;-31
2021/05/12 06:45:02;;;;;;;2.80;0.88;;;;;;;27.94;30.86;96198.63;5024781;28;20036;-28
2021/05/12 06:47:28;;;;;;;3.08;1.00;;;;;;;27.92;30.71;96199.56;5017700;28;20478;-28
2021/05/12 06:49:53;;;;;;;4.90;1.00;;;;;;;27.93;30.70;96197.78;5027033;28;20029;-29
2021/05/12 06:52:19;;;;;;;5.20;0.95;;;;;;;27.94;30.81;96198.63;5028233;28;20025;-31
2021/05/12 06:54:44;;;;;;;8.35;1.00;;;;;;;27.94;30.72;96206.53;5025832;28;20081;-28
2021/05/12 06:57:09;;;;;;;2.25;0.75;;;;;;;27.91;30.63;96199.69;5028003;28;20067;-30
2021/05/12 06:59:35;;;;;;;2.00;1.02;;;;;;;27.93;30.55;96208.34;5027877;28;20035;-28
2021/05/12 07:02:00;;;;;;;2.72;0.90;;;;;;;27.94;30.60;96196.00;5026546;28;20037;-32
2021/05/12 07:04:26;;;;;;;6.43;1.10;;;;;;;27.94;30.49;96193.34;5029241;28;20025;-27
2021/05/12 07:06:51;;;;;;;2.10;0.80;;;;;;;27.94;30.62;96193.34;5027938;28;20033;-30
2021/05/12 07:09:16;;;;;;;4.35;0.88;;;;;;;27.93;30.60;96197.78;5026562;28;20257;-31
2021/05/12 07:11:42;;;;;;;3.20;0.93;;;;;;;27.92;30.65;96202.22;5023386;28;20035;-28
2021/05/12 07:14:08;;;;;;;2.08;0.82;;;;;;;27.91;30.49;96205.81;5027194;28;20086;-29
2021/05/12 07:16:33;;;;;;;1.70;0.90;;;;;;;27.92;30.57;96217.19;5026344;28;20024;-29
2021/05/12 07:18:59;;;;;;;1.80;0.80;;;;;;;27.91;30.62;96213.69;5025842;28;20288;-30
2021/05/12 07:21:24;;;;;;;1.13;0.70;;;;;;;27.91;30.46;96213.69;5023436;28;20028;-27
2021/05/12 07:23:53;;;;;;;4.75;0.68;;;;;;;27.91;30.49;96216.34;5025120;28;20683;-29
2021/05/12 07:26:19;;;;;;;2.17;0.90;;;;;;;27.91;30.65;96211.06;5025303;28;20064;-27
2021/05/12 07:28:45;;;;;;;5.15;1.10;;;;;;;27.91;30.64;96218.13;5025363;28;20116;-29
2021/05/12 07:31:11;;;;;;;2.92;0.95;;;;;;;27.90;30.61;96206.75;5022786;28;20032;-27
2021/05/12 07:33:36;;;;;;;3.25;0.90;;;;;;;27.91;30.52;96207.59;5024805;28;20021;-28
2021/05/12 07:36:02;;;;;;;2.08;0.85;;;;;;;27.90;30.52;96209.38;5025588;28;20083;-27
2021/05/12 07:38:27;;;;;;;2.25;0.65;;;;;;;27.90;30.52;96204.13;5022399;28;20034;-29
2021/05/12 07:40:54;;;;;;;3.90;1.05;;;;;;;27.91;30.53;96208.44;5023258;28;20041;-31
2021/05/12 07:43:19;;;;;;;4.15;1.00;;;;;;;27.90;30.46;96204.13;5022623;28;20444;-27
2021/05/12 07:45:45;;;;;;;7.65;0.90;;;;;;;27.91;30.43;96203.16;5024986;28;20094;-26
2021/05/12 07:48:12;;;;;;;6.38;0.77;;;;;;;27.90;30.32;96187.47;5027746;28;20028;-33
2021/05/12 07:50:38;;;;;;;1.63;0.70;;;;;;;27.90;30.32;96183.06;5025286;28;20025;-27
2021/05/12 07:53:06;;;;;;;4.28;0.95;;;;;;;27.90;30.22;96176.94;5025537;28;20040;-31
2021/05/12 07:55:31;;;;;;;0.85;0.55;;;;;;;27.90;30.40;96176.94;5023815;28;20588;-28
2021/05/12 07:57:57;;;;;;;4.22;0.80;;;;;;;27.90;30.32;96172.53;5022542;28;20017;-29
2021/05/12 08:00:25;;;;;;;3.75;0.88;;;;;;;27.90;30.31;96176.94;5023778;28;20024;-28
2021/05/12 08:02:50;;;;;;;16.52;2.60;;;;;;;27.85;28.00;96165.91;5024214;28;20659;-27
2021/05/12 08:05:15;;;;;;;13.50;1.67;;;;;;;27.68;26.74;96172.38;5027003;28;20035;-29
2021/05/12 08:07:41;;;;;;;2.28;1.10;;;;;;;27.48;26.09;96171.94;5029375;28;20029;-28
2021/05/12 08:10:07;;;;;;;3.03;1.23;;;;;;;27.27;26.29;96169.88;5025811;28;20076;-30
2021/05/12 08:12:32;;;;;;;5.55;1.25;;;;;;;27.09;26.58;96172.81;5027664;28;20127;-33
2021/05/12 08:14:58;;;;;;;8.18;1.48;;;;;;;26.97;27.05;96171.84;5026090;28;20037;-27
2021/05/12 08:17:23;;;;;;;3.10;1.20;;;;;;;26.91;27.20;96171.41;5030075;28;20028;-28
2021/05/12 08:19:48;;;;;;;2.45;1.10;;;;;;;26.86;27.49;96175.16;5030911;28;20040;-29
2021/05/12 08:22:14;;;;;;;2.97;0.90;;;;;;;26.87;27.75;96174.25;5028722;28;20025;-29
2021/05/12 08:24:39;;;;;;;3.70;1.20;;;;;;;26.87;28.01;96169.00;5030394;28;20682;-30
2021/05/12 08:27:05;;;;;;;4.10;1.23;;;;;;;26.88;28.12;96168.03;5028015;28;20079;-28
2021/05/12 08:29:31;;;;;;;2.40;1.02;;;;;;;26.91;28.22;96174.88;5037243;28;20045;-30
2021/05/12 08:31:57;;;;;;;4.32;1.52;;;;;;;26.93;28.39;96166.88;5022123;28;20037;-32
2021/05/12 08:34:23;;;;;;;6.28;1.25;;;;;;;26.96;28.53;96172.81;5017179;28;20955;-27
2021/05/12 08:36:48;;;;;;;5.28;1.23;;;;;;;27.00;28.50;96178.69;5033280;28;20033;-29
2021/05/12 08:39:13;;;;;;;5.25;1.05;;;;;;;27.03;28.70;96178.50;5038071;28;20039;-29
2021/05/12 08:41:41;;;;;;;6.15;0.80;;;;;;;27.06;28.63;96173.03;5033401;28;20020;-29
2021/05/12 08:44:06;;;;;;;4.10;1.30;;;;;;;27.09;28.74;96178.09;5014839;28;20033;-30
2021/05/12 08:46:31;;;;;;;1.85;0.70;;;;;;;27.11;28.79;96180.59;5025675;28;20028;-32
2021/05/12 08:48:58;;;;;;;27.80;1.63;;;;;;;27.13;29.02;96169.03;5016529;28;20024;-28
2021/05/12 08:51:25;;;;;;;8.70;1.80;;;;;;;27.17;29.02;96180.19;5022424;28;21381;-30
2021/05/12 08:53:51;;;;;;;15.23;2.58;;;;;;;27.20;29.00;96168.59;5022404;28;20028;-29
2021/05/12 08:56:16;;;;;;;13.02;1.98;;;;;;;27.22;29.07;96175.44;5012040;28;20446;-32
2021/05/12 08:58:42;;;;;;;16.25;2.65;;;;;;;27.23;29.21;96174.50;5027437;28;20032;-32
2021/05/12 09:01:07;;;;;;;11.93;2.88;;;;;;;27.26;29.20;96173.44;5032104;28;20040;-28
2021/05/12 09:03:33;;;;;;;17.88;3.30;;;;;;;27.29;29.25;96175.88;5032041;28;20590;-30
2021/05/12 09:05:58;;;;;;;16.98;3.60;;;;;;;27.30;29.24;96174.91;5034223;28;20028;-32
2021/05/12 09:08:27;;;;;;;18.63;3.72;;;;;;;27.32;29.32;96175.66;5032828;28;22116;-26
2021/05/12 09:10:55;;;;;;;15.98;3.55;;;;;;;27.35;29.29;96171.97;5033673;28;20623;-29
2021/05/12 09:13:38;;;;;;;15.90;3.65;;;;;;;27.35;29.33;96171.97;5031916;28;20021;-29
2021/05/12 09:16:18;;;;;;;18.40;4.32;;;;;;;27.37;29.27;96165.66;5036286;28;20038;-34
2021/05/12 09:18:44;;;;;;;14.43;4.18;;;;;;;27.39;29.39;96166.38;5039835;28;20749;-28
2021/05/12 09:21:09;;;;;;;15.95;4.57;;;;;;;27.40;29.39;96175.13;5032861;28;20044;-27
2021/05/12 09:23:42;;;;;;;16.95;4.25;;;;;;;27.42;29.46;96167.13;5007484;28;20636;-31
2021/05/12 09:26:14;;;;;;;20.75;4.53;;;;;;;27.43;29.48;96163.53;5034877;28;20547;-27
2021/05/12 09:28:40;;;;;;;21.13;4.25;;;;;;;27.43;29.45;96169.66;5038007;28;20024;-30
2021/05/12 09:31:13;;;;;;;21.35;4.43;;;;;;;27.45;29.48;96172.16;5034945;28;20438;-28
2021/05/12 09:33:41;;;;;;;14.77;4.40;;;;;;;27.46;29.53;96176.50;5020214;28;20184;-28
2021/05/12 09:36:07;;;;;;;16.00;4.70;;;;;;;27.46;29.62;96181.75;5033668;28;20144;-29
2021/05/12 09:38:33;;;;;;;18.35;4.68;;;;;;;27.48;29.59;96187.72;5031368;28;20534;-28
2021/05/12 09:40:59;;;;;;;17.58;4.70;;;;;;;27.48;29.60;96183.31;5032599;28;20036;-31
2021/05/12 09:43:26;;;;;;;17.33;4.38;;;;;;;27.49;29.67;96178.88;5032164;28;20029;-28
2021/05/12 09:45:51;;;;;;;16.73;4.00;;;;;;;27.50;29.55;96185.84;5024056;28;20024;-30
2021/05/12 09:48:17;;;;;;;14.70;3.85;;;;;;;27.50;29.60;96181.41;4991947;28;20029;-32
2021/05/12 09:50:42;;;;;;;18.65;4.47;;;;;;;27.51;29.74;96182.25;5034479;28;20028;-31
2021/05/12 09:53:11;;;;;;;15.45;3.90;;;;;;;27.52;29.72;96182.16;5012446;28;20034;-33
2021/05/12 09:55:47;;;;;;;15.18;3.80;;;;;;;27.53;29.71;96180.34;5033820;28;20029;-28
2021/05/12 09:58:17;;;;;;;14.77;3.75;;;;;;;27.54;29.78;96182.06;5031833;28;20031;-28
2021/05/12 10:00:47;;;;;;;13.98;3.90;;;;;;;27.52;29.68;96173.41;5024591;28;20045;-30
2021/05/12 10:03:13;;;;;;;12.18;3.97;;;;;;;27.55;29.81;96178.47;5021585;28;20095;-30
2021/05/12 10:05:58;;;;;;;12.00;3.75;;;;;;;27.56;29.81;96174.88;5026014;28;20499;-32
2021/05/12 10:08:30;;;;;;;9.02;3.35;;;;;;;27.57;29.75;96171.28;5024220;28;20854;-30
2021/05/12 10:10:56;;;;;;;;;;;;;;;27.57;29.63;96173.94;5024854;28;21010;-25
2021/05/12 10:13:21;;;;;;;15.00;3.38;;;;;;;27.57;29.74;96181.81;5029035;28;19915;-29
2021/05/12 10:15:47;;;;;;;9.32;3.50;;;;;;;27.56;29.86;96168.78;5029065;28;20658;-32
2021/05/12 10:18:13;;;;;;;18.30;3.55;;;;;;;27.56;29.89;96167.00;5019645;28;20025;-29
2021/05/12 10:20:38;;;;;;;9.68;3.40;;;;;;;27.56;29.83;96168.78;5029158;28;20029;-32
2021/05/12 10:23:04;;;;;;;10.70;3.17;;;;;;;27.54;30.04;96168.91;5030613;28;20025;-29
2021/05/12 10:25:29;;;;;;;10.30;2.75;;;;;;;27.55;29.89;96162.69;5028546;28;20029;-28
2021/05/12 10:27:55;;;;;;;14.35;2.67;;;;;;;27.57;29.96;96167.84;4999638;28;20556;-29
2021/05/12 10:30:20;;;;;;;9.27;2.75;;;;;;;27.56;29.87;96164.34;5006354;28;20507;-32
2021/05/12 10:32:59;;;;;;;11.73;3.38;;;;;;;27.58;29.90;96162.44;5021012;28;20249;-28
2021/05/12 10:35:43;;;;;;;9.38;3.08;;;;;;;27.58;29.93;96159.00;5034923;28;20020;-27
2021/05/12 10:38:32;;;;;;;7.22;2.60;;;;;;;27.59;30.23;96164.16;5024821;28;20689;-28
2021/05/12 10:40:57;;;;;;;9.30;2.80;;;;;;;27.59;30.02;96158.88;5023711;28;20032;-28
2021/05/12 10:45:52;;;;;;;8.77;2.88;;;;;;;27.60;29.89;96163.19;5024217;28;20021;-30
2021/05/12 10:48:27;;;;;;;10.23;2.75;;;;;;;27.61;30.04;96162.28;5023966;28;20635;-26
2021/05/12 10:50:52;;;;;;;7.38;2.70;;;;;;;27.62;30.06;96163.13;5027572;28;20094;-31
2021/05/12 10:53:27;;;;;;;9.93;2.65;;;;;;;27.62;30.28;96161.31;5023823;28;20546;-30
2021/05/12 10:55:58;;;;;;;7.47;2.65;;;;;;;27.62;30.12;96156.03;5018090;28;20064;-31
2021/05/12 10:58:24;;;;;;;;;;;;;;;27.63;30.18;96156.91;5024451;28;20047;-27
2021/05/12 11:01:03;;;;;;;7.13;2.35;;;;;;;27.63;30.19;96149.84;5019450;28;19917;-28
2021/05/12 11:03:51;;;;;;;8.77;2.70;;;;;;;27.63;30.16;96141.09;5020928;28;20071;-31
2021/05/12 11:06:23;;;;;;;9.00;2.60;;;;;;;27.64;30.20;96135.75;5025595;28;20017;-28
2021/05/12 11:09:08;;;;;;;7.78;2.17;;;;;;;27.64;30.27;96141.00;5023446;28;20136;-28
2021/05/12 11:11:49;;;;;;;8.75;2.28;;;;;;;27.65;30.31;96126.06;5024983;28;20024;-30
2021/05/12 11:14:21;;;;;;;6.25;2.40;;;;;;;27.65;30.37;96120.81;5015547;28;20657;-31
2021/05/12 11:17:12;;;;;;;8.27;2.78;;;;;;;27.65;30.33;96121.63;5019573;28;20033;-26
2021/05/12 11:19:40;;;;;;;8.30;2.20;;;;;;;27.65;30.42;96124.25;5020271;28;20144;-28
2021/05/12 11:22:38;;;;;;;5.22;2.03;;;;;;;27.68;30.45;96125.00;5022378;28;20113;-27
2021/05/12 11:33:18;;;;;;;6.40;2.40;;;;;;;27.71;30.53;96119.50;5026220;28;20031;-30
2021/05/12 11:35:49;;;;;;;3.75;1.42;;;;;;;27.70;30.61;96116.03;5022803;28;20999;-29
2021/05/12 11:38:17;;;;;;;4.03;1.60;;;;;;;27.71;30.65;96114.22;5025704;28;20026;-31
2021/05/12 11:41:05;;;;;;;5.82;2.13;;;;;;;27.71;30.60;96112.44;5022158;28;20399;-30
2021/05/12 11:43:35;;;;;;;6.07;2.00;;;;;;;27.72;30.56;96111.50;5022339;28;20132;-30